Terminal Aerodrome Forecast
Issued by NWS Corpus Christi, TX

Home | Current Version | Previous Version | Text Only | Print | Product List | Glossary On
Versions: 1 2 3 4 5 6 7 8 9 10 11 12 13 14
000
FTUS44 KCRP 302300
TAFVCT
TAF
KVCT 302320Z 3100/3124 15013KT P6SM SCT030 BKN250
     FM310500 VRB04KT P6SM SCT018
      TEMPO 3110/3112 BKN020
     FM311200 VRB05KT P6SM VCTS SCT015CB BKN050 PROB30 3112/3118 4SM
      TS BR BKN025CB
     FM311800 15012KT P6SM VCTS SCT040CB BKN150 PROB30 3118/3122 5SM
      TSRA BR BKN025CB=

USA.gov is the U.S. government's official web portal to all federal, state and local government web resources and services.